• Join FlightAware (Why Join?)
  • Login
  • US Flag 
03:46PM EDT


 

Airport Tracker/Info


-or-


 

Live Flight TrackerFlight Track Log ✈ FLG3429 ✈ 27-Jul-2013 ✈ KJFK - KJAX

Flight Track Log - Related Links

Times and Time Zones

All times are in EDT time to prevent confusion due to time zone crossing. See the FLG3429 flight status page for this flight to view local times or setup timezone preferences in your user account.

Time Position Orientation Groundspeed Altitude Reporting Facility
EDT Latitude Longitude Course Direction KTS MPH feet Rate Location/Type
09:53PM 40.5667 -73.7667 270° West 206 237 3,100  Level New York TRACON
09:54PM 40.5167 -73.8167 217° Southwest 258 297 4,800 2,340 Climbing New York TRACON
09:55PM 40.4451 -74.0657 233° Southwest  Level FlightAware Approximate
09:55PM 40.4667 -73.8833 225° Southwest 265 305 7,800  Level New York TRACON
09:56PM 40.3813 -74.1750 233° Southwest  Level FlightAware Approximate
09:56PM 40.4333 -73.9667 242° Southwest 275 316 10,100  Level New York TRACON
09:57PM 40.3168 -74.2833 232° Southwest  Level FlightAware Approximate
09:57PM 40.4000 -74.0667 246° West 313 360 11,500  Level New York TRACON
09:58PM 40.2500 -74.3871 270° West  Level FlightAware Approximate
09:58PM 40.3639 -74.1269 232° Southwest 322 371 12,900  Level New York Center
09:59PM 40.3258 -74.2150 240° Southwest 345 397 14,700 1,860 Climbing New York Center
10:00PM 40.2744 -74.3319 240° Southwest 345 397 16,700 1,620 Climbing New York Center
10:01PM 40.2319 -74.4303 241° Southwest 345 397 18,000 1,500 Climbing New York Center
10:02PM 40.1967 -74.5536 250° West 355 409 19,700 1,560 Climbing New York Center
10:03PM 40.1856 -74.7022 264° West 372 428 21,100 1,380 Climbing New York Center
10:04PM 40.1753 -74.8239 264° West 382 440 22,500 1,320 Climbing New York Center
10:05PM 40.1656 -74.9783 265° West 387 445 23,800 1,200 Climbing New York Center
10:06PM 40.1542 -75.1189 264° West 387 445 24,900 1,080 Climbing New York Center
10:07PM 40.1447 -75.2650 265° West 397 457 26,000 1,080 Climbing New York Center
10:08PM 40.1164 -75.4014 255° West 397 457 27,100 900 Climbing New York Center
10:09PM 40.0411 -75.5103 228° Southwest 388 447 27,800 600 Climbing New York Center
10:10PM 39.9639 -75.6161 226° Southwest 401 461 28,400 720 Climbing New York Center
10:11PM 39.8842 -75.7325 228° Southwest 417 480 29,300 1,140 Climbing New York Center
10:12PM 39.8125 -75.8461 231° Southwest 417 480 30,800 1,500 Climbing New York Center
10:13PM 39.7453 -75.9547 231° Southwest 411 473 32,300 900 Climbing New York Center
10:15PM 39.5767 -76.2161 230° Southwest 402 463 34,000 480 Climbing Washington Center
10:16PM 39.5031 -76.3283 230° Southwest 402 463 34,000  Level Washington Center
10:17PM 39.4314 -76.4406 230° Southwest 402 463 34,000  Level Washington Center
10:18PM 39.3578 -76.5497 229° Southwest 402 463 34,000  Level Washington Center
10:19PM 39.2900 -76.6617 232° Southwest 402 463 34,000  Level Washington Center
10:20PM 39.2203 -76.7678 230° Southwest 402 463 34,000  Level Washington Center
10:21PM 39.1258 -76.8383 210° Southwest 393 452 34,000  Level Washington Center
10:22PM 39.0211 -76.8900 201° Southwest 393 452 34,000  Level Washington Center
10:23PM 38.9142 -76.9442 202° Southwest 405 466 34,000  Level Washington Center
10:24PM 38.8072 -76.9928 200° South 405 466 34,000  Level Washington Center
10:25PM 38.7044 -77.0442 201° Southwest 411 473 34,000  Level Washington Center
10:26PM 38.5994 -77.0978 202° Southwest 411 473 34,000  Level Washington Center
10:27PM 38.4967 -77.1489 201° Southwest 411 473 34,000  Level Washington Center
10:28PM 38.3939 -77.1969 200° South 406 467 34,000  Level Washington Center
10:29PM 38.2869 -77.2503 201° Southwest 406 467 34,000  Level Washington Center
10:30PM 38.1797 -77.3008 200° South 411 473 34,000  Level Washington Center
10:31PM 38.0706 -77.3536 201° Southwest 416 479 34,000  Level Washington Center
10:32PM 37.9572 -77.4117 202° Southwest 411 473 34,000  Level Washington Center
10:33PM 37.8600 -77.4908 213° Southwest 411 473 34,000  Level Washington Center
10:34PM 37.7853 -77.5992 229° Southwest 411 473 34,000  Level Washington Center
10:35PM 37.7061 -77.7075 227° Southwest 411 473 34,000  Level Washington Center
10:36PM 37.6311 -77.8181 229° Southwest 416 479 34,000  Level Washington Center
10:37PM 37.5561 -77.9233 228° Southwest 416 479 34,000  Level Washington Center
10:38PM 37.4789 -78.0336 229° Southwest 416 479 34,000  Level Washington Center
10:39PM 37.4017 -78.1381 227° Southwest 416 479 34,000 180 Level Washington Center
10:40PM 37.3350 -78.2325 228° Southwest 407 468 34,400 660 Climbing Washington Center
10:41PM 37.2597 -78.3344 227° Southwest 412 474 35,400 780 Climbing Washington Center
10:42PM 37.1842 -78.4411 228° Southwest 412 474 36,000 240 Climbing Washington Center
10:43PM 37.1000 -78.5528 227° Southwest 412 474 36,000  Level Washington Center
10:44PM 37.0244 -78.6592 228° Southwest 412 474 36,000  Level Washington Center
10:45PM 36.9486 -78.7600 227° Southwest 412 474 36,000  Level Washington Center
10:46PM 36.8753 -78.8583 227° Southwest 406 467 36,000  Level Washington Center
10:47PM 36.8014 -78.9589 227° Southwest 406 467 36,000  Level Washington Center
10:48PM 36.7342 -79.0519 228° Southwest 406 467 36,000  Level Washington Center
10:49PM 36.6581 -79.1572 228° Southwest 411 473 36,000  Level Washington Center
10:52PM 36.4514 -79.4317 227° Southwest 411 473 36,000  Level Atlanta Center
10:53PM 36.3719 -79.5342 226° Southwest 411 473 36,000  Level Atlanta Center
10:54PM 36.2983 -79.6361 228° Southwest 418 481 36,000  Level Atlanta Center
10:55PM 36.2167 -79.7461 227° Southwest 418 481 36,000  Level Atlanta Center
10:56PM 36.1408 -79.8400 225° Southwest 418 481 36,000  Level Atlanta Center
10:57PM 36.0650 -79.9417 227° Southwest 418 481 36,000  Level Atlanta Center
10:58PM 35.9733 -80.0106 211° Southwest 412 474 36,000  Level Atlanta Center
10:59PM 35.8811 -80.0561 202° Southwest 397 457 36,000  Level Atlanta Center
11:00PM 35.7803 -80.1044 201° Southwest 397 457 36,000  Level Atlanta Center
11:01PM 35.6756 -80.1581 203° Southwest 397 457 36,000  Level Atlanta Center
11:02PM 35.5731 -80.2114 203° Southwest 402 463 36,000  Level Atlanta Center
11:03PM 35.4600 -80.2678 202° Southwest 402 463 36,000  Level Atlanta Center
11:05PM 35.2669 -80.3631 202° Southwest 405 466 36,000  Level Jacksonville Center
11:06PM 35.1617 -80.4172 203° Southwest 405 466 36,000  Level Jacksonville Center
11:07PM 35.0586 -80.4708 203° Southwest 410 472 36,000  Level Jacksonville Center
11:08PM 34.9572 -80.5192 201° Southwest 410 472 36,000  Level Jacksonville Center
11:09PM 34.8519 -80.5728 203° Southwest 405 466 36,000  Level Jacksonville Center
11:10PM 34.7547 -80.6233 203° Southwest 400 460 36,000  Level Jacksonville Center
11:11PM 34.6472 -80.6792 203° Southwest 400 460 36,000  Level Jacksonville Center
11:12PM 34.5353 -80.7175 196° South 424 488 36,000  Level Jacksonville Center
11:13PM 34.4336 -80.7453 193° South 412 474 36,000  Level Jacksonville Center
11:14PM 34.3236 -80.7731 192° South 413 475 36,000  Level Jacksonville Center
11:15PM 34.2050 -80.8011 191° South 400 460 36,000  Level Jacksonville Center
11:16PM 34.0928 -80.8289 192° South 406 467 36,000  Level Jacksonville Center
11:17PM 33.9786 -80.8592 192° South 412 474 36,000  Level Jacksonville Center
11:18PM 33.8664 -80.8867 192° South 417 480 36,000  Level Jacksonville Center
11:19PM 33.7519 -80.9142 191° South 417 480 36,000  Level Jacksonville Center
11:20PM 33.6397 -80.9417 192° South 417 480 36,000  Level Jacksonville Center
11:21PM 33.5275 -80.9717 193° South 412 474 36,000  Level Jacksonville Center
11:22PM 33.4111 -81.0014 192° South 412 474 36,000  Level Jacksonville Center
11:23PM 33.2989 -81.0286 191° South 417 480 36,000  Level Jacksonville Center
11:24PM 33.1844 -81.0558 191° South 417 480 36,000  Level Jacksonville Center
11:25PM 33.0681 -81.0856 192° South 422 486 36,000  Level Jacksonville Center
11:26PM 32.9536 -81.1125 191° South 428 493 36,000  Level Jacksonville Center
11:27PM 32.8350 -81.1397 191° South 428 493 36,000  Level Jacksonville Center
11:28PM 32.7183 -81.1667 191° South 428 493 36,000  Level Jacksonville Center
11:29PM 32.6206 -81.1906 192° South 412 474 36,000 -300 Level Jacksonville Center
11:30PM 32.4958 -81.2225 192° South 407 468 35,400 -900 Descending Jacksonville Center
11:31PM 32.3833 -81.2467 190° South 447 514 34,300 -1,140 Descending Jacksonville Center
11:32PM 32.2711 -81.2733 191° South 447 514 33,200 -1,200 Descending Jacksonville Center
11:33PM 32.1567 -81.3000 191° South 434 499 32,000 -1,380 Descending Jacksonville Center
11:34PM 32.0422 -81.3314 193° South 428 493 30,500 -1,500 Descending Jacksonville Center
11:35PM 31.9256 -81.3553 190° South 428 493 29,000 -1,920 Descending Jacksonville Center
11:36PM 31.8111 -81.3842 192° South 405 466 26,700 -2,280 Descending Jacksonville Center
11:37PM 31.7006 -81.4081 190° South 385 443 24,500 -2,400 Descending Jacksonville Center
11:38PM 31.5756 -81.4367 191° South 438 504 21,900 -2,280 Descending Jacksonville Center
11:39PM 31.4717 -81.4603 191° South 393 452 20,000 -1,920 Descending Jacksonville Center
11:40PM 31.3758 -81.4811 191° South 371 427 18,100 -2,220 Descending Jacksonville Center
11:41PM 31.2861 -81.5069 194° South 360 414 15,600 -2,640 Descending Jacksonville Center
11:42PM 31.1906 -81.5303 192° South 360 414 12,900 -2,700 Descending Jacksonville Center
11:43PM 31.0947 -81.5508 190° South 354 407 10,200 -1,500 Descending Jacksonville Center
11:44PM 31.0050 -81.5717 191° South 343 395 9,900 -300 Descending Jacksonville Center
11:45PM 30.9239 -81.6042 199° South 326 375 9,700 -960 Descending Jacksonville Center
11:46PM 30.8533 -81.6342 200° South 300 345 8,000 -1,740 Descending Jacksonville Center
11:47PM 30.7806 -81.6667 201° Southwest 288 331 6,300 -1,740 Descending Jacksonville Center
11:48PM 30.7097 -81.6967 200° South 282 325 4,600 -1,560 Descending Jacksonville Center
11:49PM 30.6392 -81.7264 200° South 277 319 3,200 -1,380 Descending Jacksonville Center
11:50PM 30.5789 -81.7658 209° Southwest 265 305 1,900 -660 Descending Jacksonville Center
11:51PM 30.5461 -81.8242 237° Southwest 235 270 1,900  Level Jacksonville Center
11:52PM 30.5000 -81.8294 186° South 179 206 1,900 -300 Level Jacksonville Center
11:53PM 30.4706 -81.7911 132° Southeast 151 174 1,300 -660 Descending Jacksonville Center
11:54PM 30.4867 -81.7258 74° East 151 174 500 -720 Descending Jacksonville Center